South Padre Island, Texas
Current Conditions -  °F | °C
As of 4:53 AM on Wednesday 26 Nov 2014 (Local Time) from KPIL Reporting Station
Clear Clear  
Wind Chill: 42°   Ceiling: Unl
Heat Index: 46°   Visibility: 9mi
Dew Point: 39°   Wind: 7mph
Humidity: 76%   Direction: 220°SW
Pressure: 30.27"   Gusts: NA
Location:  26.1°N, 97.17°W
Report Text: KPIL 261053Z AUTO 22006KT 9SM CLR 08/04 A3027 RMK AO2 SLP249 T00780039
Loading
Personal Weather Stations






























Interactive Weather Map New forecast layout! Learn more

10-Day Weather Forecast

Advertisements
Track Severe Weather on mobile